Time;durP1;ratioP1;P1;durP2;ratioP2;P2;SDS_P1;SDS_P2;PMS_P1;PMS_P2;Temp;Humidity;BMP_temperature;BMP_pressure;BME280_temperature;BME280_humidity;BME280_pressure;Samples;Min_cycle;Max_cycle;Signal;HPM_P1;HPM_P2
2022/11/20 00:00:24;;;;;;;0.50;0.50;;;;;;;23.80;39.73;98902.72;1918930;73;27987;-49
2022/11/20 00:03:14;;;;;;;0.70;0.70;;;;;;;23.82;39.67;98903.83;1912182;74;28032;-49
2022/11/20 00:06:04;;;;;;;0.50;0.50;;;;;;;23.78;39.78;98904.86;1913805;73;28067;-53
2022/11/20 00:08:54;;;;;;;0.70;0.70;;;;;;;23.82;39.86;98907.94;1910077;74;28039;-51
2022/11/20 00:11:42;;;;;;;1.30;0.90;;;;;;;23.79;39.82;98905.16;1856006;76;28254;-50
2022/11/20 00:14:31;;;;;;;1.00;0.50;;;;;;;23.82;39.75;98907.40;1848875;77;28096;-50
2022/11/20 00:17:20;;;;;;;1.27;0.60;;;;;;;23.83;39.77;98909.04;1848037;76;28334;-52
2022/11/20 00:20:10;;;;;;;0.85;0.68;;;;;;;23.81;39.80;98910.37;1851678;76;28210;-53
2022/11/20 00:22:58;;;;;;;0.70;0.70;;;;;;;23.75;39.92;98911.42;1849058;76;28241;-54
2022/11/20 00:25:47;;;;;;;1.70;0.60;;;;;;;23.70;39.98;98914.93;1918217;73;27981;-52
2022/11/20 00:28:36;;;;;;;0.70;0.70;;;;;;;23.68;40.07;98918.47;1903527;74;28110;-52
2022/11/20 00:31:24;;;;;;;0.60;0.60;;;;;;;23.69;40.11;98923.39;1884866;75;28083;-52
2022/11/20 00:34:13;;;;;;;0.60;0.60;;;;;;;23.68;40.11;98928.61;1868158;75;28007;-51
2022/11/20 00:37:01;;;;;;;2.15;0.60;;;;;;;23.68;40.16;98928.07;1897902;75;28433;-52
2022/11/20 00:39:49;;;;;;;0.60;0.60;;;;;;;23.70;40.13;98929.17;1897598;74;27980;-51
2022/11/20 00:42:38;;;;;;;0.42;0.42;;;;;;;23.69;40.14;98924.23;1898747;75;30137;-50
2022/11/20 00:45:26;;;;;;;0.60;0.60;;;;;;;23.71;40.18;98925.36;1874658;75;31974;-53
2022/11/20 00:48:15;;;;;;;0.70;0.70;;;;;;;23.69;40.12;98923.39;1900594;75;28015;-51
2022/11/20 00:51:04;;;;;;;1.17;0.62;;;;;;;23.69;40.11;98922.86;1892815;74;27946;-55
2022/11/20 00:53:54;;;;;;;0.70;0.60;;;;;;;23.68;40.20;98928.07;1878826;75;28027;-55
2022/11/20 00:56:43;;;;;;;1.00;0.55;;;;;;;23.70;40.12;98924.53;1866699;75;28108;-50
2022/11/20 00:59:31;;;;;;;0.50;0.50;;;;;;;23.74;40.13;98933.89;1888790;74;28059;-51
2022/11/20 01:02:19;;;;;;;0.57;0.57;;;;;;;23.74;40.09;98924.30;1887325;74;28150;-53
2022/11/20 01:05:08;;;;;;;1.05;0.70;;;;;;;23.73;40.06;98926.77;1888319;75;28094;-49
2022/11/20 01:07:56;;;;;;;0.53;0.53;;;;;;;23.74;39.94;98940.75;1892993;74;28004;-53
2022/11/20 01:10:45;;;;;;;0.47;0.47;;;;;;;23.73;40.04;98941.84;1885788;74;28076;-53
2022/11/20 01:13:37;;;;;;;0.90;0.60;;;;;;;23.75;40.03;98938.84;1897143;74;27956;-52
2022/11/20 01:16:31;;;;;;;0.60;0.60;;;;;;;23.74;40.03;98944.03;1893059;74;28522;-52
2022/11/20 01:19:21;;;;;;;0.57;0.57;;;;;;;23.78;39.92;98947.38;1879259;74;28073;-50
2022/11/20 01:22:10;;;;;;;0.80;0.57;;;;;;;23.76;39.91;98945.97;1894798;74;28041;-52
2022/11/20 01:24:58;;;;;;;0.45;0.45;;;;;;;23.76;39.95;98961.05;1892467;74;28056;-52
2022/11/20 01:27:47;;;;;;;0.70;0.60;;;;;;;23.81;39.90;98962.49;1883013;75;28070;-52
2022/11/20 01:30:35;;;;;;;0.72;0.72;;;;;;;23.79;39.91;98959.17;1901091;74;28562;-53
2022/11/20 01:33:24;;;;;;;0.78;0.78;;;;;;;23.81;39.87;98966.07;1865803;75;28483;-53
2022/11/20 01:36:13;;;;;;;0.78;0.70;;;;;;;23.79;39.92;98966.88;1903332;73;28024;-53
2022/11/20 01:39:05;;;;;;;0.65;0.65;;;;;;;23.80;39.87;98968.55;1897648;73;28041;-49
2022/11/20 01:45:03;;;;;;;0.60;0.60;;;;;;;23.82;39.90;98958.67;1902877;74;28149;-50
2022/11/20 01:47:51;;;;;;;1.20;0.55;;;;;;;23.81;39.89;98964.70;1898220;74;28081;-52
2022/11/20 01:50:41;;;;;;;1.07;0.70;;;;;;;23.80;39.85;98971.28;1891867;74;28007;-53
2022/11/20 01:53:33;;;;;;;0.85;0.60;;;;;;;23.82;39.90;98969.65;1893858;75;28043;-53
2022/11/20 01:56:22;;;;;;;2.10;0.70;;;;;;;23.84;39.79;98965.56;1892323;74;28077;-52
2022/11/20 01:59:13;;;;;;;0.93;0.73;;;;;;;23.83;39.78;98968.55;1881813;75;28570;-54
2022/11/20 02:02:01;;;;;;;0.95;0.50;;;;;;;23.82;39.81;98962.79;1869395;75;28112;-54
2022/11/20 02:04:52;;;;;;;0.68;0.68;;;;;;;23.80;39.79;98967.70;1889568;74;28017;-48
2022/11/20 02:07:42;;;;;;;0.70;0.70;;;;;;;23.82;39.87;98972.39;1884474;75;27971;-49
2022/11/20 02:10:31;;;;;;;1.20;0.62;;;;;;;23.83;39.90;98975.41;1906276;74;28044;-51
2022/11/20 02:16:32;;;;;;;0.60;0.60;;;;;;;23.83;39.83;98974.87;1868566;75;28223;-51
2022/11/20 02:19:27;;;;;;;0.67;0.67;;;;;;;23.83;39.94;98970.75;1882543;75;28029;-52
2022/11/20 02:22:21;;;;;;;0.70;0.70;;;;;;;23.83;39.93;98971.29;1871890;74;28153;-51
2022/11/20 02:25:11;;;;;;;0.80;0.80;;;;;;;23.83;39.92;98972.66;1888377;75;28005;-53
2022/11/20 02:28:00;;;;;;;0.80;0.80;;;;;;;23.84;39.89;98975.70;1896287;75;27984;-54
2022/11/20 02:30:48;;;;;;;1.22;0.60;;;;;;;23.87;39.88;98971.09;1888603;74;28106;-52
2022/11/20 02:33:37;;;;;;;0.50;0.50;;;;;;;23.85;39.89;98976.81;1896019;74;28282;-51
2022/11/20 02:36:28;;;;;;;0.60;0.60;;;;;;;23.88;39.85;98972.73;1912996;74;33428;-52
2022/11/20 02:39:17;;;;;;;0.80;0.60;;;;;;;23.88;39.84;98975.47;1901040;74;27985;-53
2022/11/20 02:42:05;;;;;;;0.50;0.50;;;;;;;23.83;39.90;98978.98;1910434;73;28046;-50
2022/11/20 02:44:53;;;;;;;0.40;0.40;;;;;;;23.84;39.94;98979.28;1919097;74;27968;-53
2022/11/20 02:47:41;;;;;;;1.40;0.60;;;;;;;23.88;39.92;98978.22;1909290;74;27969;-52
2022/11/20 02:50:30;;;;;;;0.40;0.40;;;;;;;23.87;39.94;98980.16;1914804;74;28030;-49
2022/11/20 02:53:19;;;;;;;0.50;0.40;;;;;;;23.88;39.96;98976.84;1910339;74;28064;-54
2022/11/20 02:56:08;;;;;;;0.62;0.60;;;;;;;23.87;39.90;98971.92;1914702;74;27927;-49
2022/11/20 02:58:57;;;;;;;0.70;0.70;;;;;;;23.87;39.96;98978.78;1830104;76;28196;-51
2022/11/20 03:01:46;;;;;;;0.70;0.70;;;;;;;23.88;39.97;98982.33;1841207;76;28338;-54
2022/11/20 03:04:34;;;;;;;0.60;0.60;;;;;;;23.86;39.97;98983.97;1865093;76;28456;-50
2022/11/20 03:07:22;;;;;;;2.05;0.57;;;;;;;23.87;39.97;98979.32;1855941;76;28306;-50
2022/11/20 03:10:12;;;;;;;1.02;0.65;;;;;;;23.87;40.05;98973.83;1849761;76;28227;-52
2022/11/20 03:13:00;;;;;;;0.50;0.50;;;;;;;23.89;40.02;98973.03;1865916;76;28185;-52
2022/11/20 03:15:48;;;;;;;0.70;0.70;;;;;;;23.87;40.08;98982.89;1842439;77;28289;-50
2022/11/20 03:18:36;;;;;;;1.77;0.68;;;;;;;23.87;40.03;98981.52;1867930;76;28072;-48
2022/11/20 03:21:25;;;;;;;0.80;0.75;;;;;;;23.90;40.01;98977.41;1844665;76;28274;-53
2022/11/20 03:24:14;;;;;;;0.50;0.50;;;;;;;23.89;40.05;98974.40;1871641;74;28011;-53
2022/11/20 03:27:03;;;;;;;0.50;0.50;;;;;;;23.90;40.03;98984.27;1842566;77;28364;-54
2022/11/20 03:29:51;;;;;;;0.60;0.60;;;;;;;23.90;40.05;98982.36;1841023;76;28354;-52
2022/11/20 03:32:40;;;;;;;0.50;0.50;;;;;;;23.91;40.04;98987.31;1842549;76;28224;-51
2022/11/20 03:35:28;;;;;;;0.57;0.57;;;;;;;23.91;40.05;98983.20;1843084;77;28181;-54
2022/11/20 03:38:17;;;;;;;0.53;0.53;;;;;;;23.90;40.07;98986.48;1839676;77;28297;-54
2022/11/20 03:41:12;;;;;;;0.47;0.47;;;;;;;23.91;40.03;98985.94;1875324;75;28021;-54
2022/11/20 03:44:03;;;;;;;1.20;0.50;;;;;;;23.92;40.08;98991.73;1795574;78;28394;-54
2022/11/20 03:46:52;;;;;;;1.00;1.00;;;;;;;23.91;40.06;98982.66;1837248;77;28620;-53
2022/11/20 03:49:40;;;;;;;1.02;0.60;;;;;;;23.96;39.97;98985.48;1844085;77;28201;-49
2022/11/20 03:52:28;;;;;;;0.60;0.47;;;;;;;23.93;40.06;98988.72;1823188;77;28244;-49
2022/11/20 03:55:17;;;;;;;0.53;0.53;;;;;;;23.91;40.06;98993.64;1837913;77;28252;-51
2022/11/20 03:58:05;;;;;;;0.70;0.70;;;;;;;23.92;40.05;98998.59;1839194;77;28139;-53
2022/11/20 04:00:54;;;;;;;1.00;0.55;;;;;;;23.91;40.05;99001.87;1840023;77;28119;-52
2022/11/20 04:03:44;;;;;;;1.30;0.53;;;;;;;23.94;40.08;99003.27;1831935;77;28257;-55
2022/11/20 04:06:35;;;;;;;0.50;0.50;;;;;;;23.92;40.03;99007.63;1815695;77;28340;-53
2022/11/20 04:09:23;;;;;;;0.70;0.70;;;;;;;23.92;40.04;99013.67;1834566;77;28206;-52
2022/11/20 04:12:12;;;;;;;0.60;0.60;;;;;;;23.86;40.10;98995.47;1831596;77;28193;-52
2022/11/20 04:15:00;;;;;;;0.70;0.50;;;;;;;23.94;40.12;99027.97;1839390;77;28221;-48
2022/11/20 04:17:49;;;;;;;1.25;0.50;;;;;;;23.91;40.15;99021.07;1831011;77;28174;-51
2022/11/20 04:20:37;;;;;;;0.47;0.47;;;;;;;23.92;40.13;99021.91;1839231;77;28164;-52
2022/11/20 04:23:26;;;;;;;0.40;0.40;;;;;;;23.94;40.12;99026.59;1840952;77;28042;-51
2022/11/20 04:26:15;;;;;;;0.50;0.50;;;;;;;23.97;40.08;99034.29;1843982;76;28243;-53
2022/11/20 04:29:04;;;;;;;0.90;0.63;;;;;;;23.95;40.04;99038.67;1828074;77;28221;-53
2022/11/20 04:31:52;;;;;;;1.00;0.60;;;;;;;23.95;40.12;99037.83;1891146;74;28013;-49
2022/11/20 04:34:41;;;;;;;0.50;0.50;;;;;;;24.00;40.04;99042.02;1902061;74;28038;-51
2022/11/20 04:37:29;;;;;;;0.75;0.50;;;;;;;23.99;40.07;99041.75;1909606;74;28058;-50
2022/11/20 04:40:17;;;;;;;0.60;0.60;;;;;;;23.98;40.07;99041.45;1905086;74;28051;-55
2022/11/20 04:43:06;;;;;;;0.50;0.40;;;;;;;23.99;40.07;99045.87;1909853;74;28177;-55
2022/11/20 04:45:59;;;;;;;0.40;0.40;;;;;;;23.97;40.10;99037.03;1910742;74;28091;-50
2022/11/20 04:48:48;;;;;;;0.45;0.45;;;;;;;24.01;40.05;99034.09;1909425;74;28068;-52
2022/11/20 04:51:37;;;;;;;0.50;0.50;;;;;;;24.00;40.08;99035.16;1911482;74;29949;-53
2022/11/20 04:54:25;;;;;;;0.60;0.60;;;;;;;23.98;40.05;99039.55;1918921;74;28043;-49
2022/11/20 04:57:14;;;;;;;0.50;0.50;;;;;;;23.87;40.09;99024.05;1898546;73;28018;-53
2022/11/20 05:00:03;;;;;;;0.72;0.42;;;;;;;23.95;40.17;99052.39;1907398;74;28070;-50
2022/11/20 05:02:52;;;;;;;0.33;0.33;;;;;;;23.99;40.11;99041.75;1913940;74;28127;-49
2022/11/20 05:05:40;;;;;;;0.37;0.37;;;;;;;23.97;40.11;99048.84;1900265;74;28026;-50
2022/11/20 05:08:30;;;;;;;0.50;0.50;;;;;;;23.99;40.13;99058.21;1900748;74;27916;-53
2022/11/20 05:11:21;;;;;;;0.50;0.50;;;;;;;23.97;40.14;99055.70;1906288;74;28124;-51
2022/11/20 05:14:09;;;;;;;0.50;0.50;;;;;;;23.98;40.11;99049.14;1898553;74;27993;-51
2022/11/20 05:16:57;;;;;;;0.50;0.50;;;;;;;23.99;40.14;99050.78;1904821;74;28469;-50
2022/11/20 05:19:45;;;;;;;0.55;0.55;;;;;;;23.98;40.10;99049.14;1912564;74;28012;-50
2022/11/20 05:22:34;;;;;;;0.40;0.40;;;;;;;23.99;40.15;99051.36;1910319;74;28005;-49
2022/11/20 05:25:22;;;;;;;0.60;0.40;;;;;;;24.00;40.19;99053.00;1910796;74;28083;-50
2022/11/20 05:28:11;;;;;;;0.57;0.57;;;;;;;24.00;40.13;99053.00;1906884;74;28028;-53
2022/11/20 05:31:11;;;;;;;0.57;0.57;;;;;;;23.98;40.17;99050.52;1896393;74;27991;-53
2022/11/20 05:33:59;;;;;;;1.10;0.50;;;;;;;23.98;40.20;99047.77;1890729;74;28048;-50
2022/11/20 05:36:47;;;;;;;0.50;0.47;;;;;;;23.99;40.19;99054.09;1910372;74;28027;-49
2022/11/20 05:39:35;;;;;;;0.90;0.50;;;;;;;23.98;40.19;99042.29;1910505;74;28143;-52
2022/11/20 05:42:33;;;;;;;0.55;0.55;;;;;;;24.00;40.17;99046.14;1893627;74;28080;-51
2022/11/20 05:45:21;;;;;;;0.68;0.50;;;;;;;24.01;40.16;99047.81;1906610;74;27995;-54
2022/11/20 05:48:10;;;;;;;0.50;0.50;;;;;;;23.93;40.19;99039.47;1894939;74;28077;-48
2022/11/20 05:50:59;;;;;;;0.40;0.40;;;;;;;23.99;40.20;99054.09;1899012;74;28459;-53
2022/11/20 05:53:48;;;;;;;0.50;0.50;;;;;;;24.00;40.17;99042.02;1912955;74;28087;-50
2022/11/20 05:56:37;;;;;;;1.45;0.50;;;;;;;23.99;40.22;99045.87;1910772;74;28096;-51
2022/11/20 05:59:25;;;;;;;0.30;0.30;;;;;;;23.99;40.14;99053.53;1910224;74;28106;-51
2022/11/20 06:02:13;;;;;;;0.50;0.50;;;;;;;24.03;40.18;99048.37;1913900;74;28039;-51
2022/11/20 06:05:01;;;;;;;1.30;0.70;;;;;;;24.01;40.16;99047.81;1896572;74;27962;-50
2022/11/20 06:07:49;;;;;;;0.60;0.60;;;;;;;24.01;40.18;99045.88;1895707;74;28004;-53
2022/11/20 06:10:37;;;;;;;0.90;0.47;;;;;;;24.03;40.17;99047.84;1911326;74;28042;-53
2022/11/20 06:13:26;;;;;;;0.40;0.40;;;;;;;24.01;40.18;99045.88;1912769;74;28089;-53
2022/11/20 06:16:17;;;;;;;0.60;0.60;;;;;;;24.01;40.15;99045.88;1911681;74;28129;-53
2022/11/20 06:19:06;;;;;;;0.50;0.50;;;;;;;24.01;40.16;99045.88;1908223;74;28088;-52
2022/11/20 06:21:54;;;;;;;0.50;0.50;;;;;;;24.02;40.15;99047.55;1882020;74;28445;-54
2022/11/20 06:24:42;;;;;;;0.53;0.53;;;;;;;23.97;40.25;99046.10;1915168;74;28069;-52
2022/11/20 06:27:31;;;;;;;0.60;0.60;;;;;;;24.01;40.20;99043.70;1917736;74;28067;-50
2022/11/20 06:30:19;;;;;;;0.40;0.40;;;;;;;24.01;40.19;99047.81;1907956;74;28486;-49
2022/11/20 06:33:08;;;;;;;0.90;0.50;;;;;;;24.02;40.24;99052.20;1909344;74;28833;-51
2022/11/20 06:36:01;;;;;;;0.80;0.50;;;;;;;23.98;40.18;99057.38;1917886;74;28055;-55
2022/11/20 06:38:49;;;;;;;0.40;0.40;;;;;;;24.00;40.23;99059.86;1899528;74;27997;-52
2022/11/20 06:41:38;;;;;;;0.62;0.57;;;;;;;23.91;40.24;99048.50;1916171;74;28127;-50
2022/11/20 06:44:26;;;;;;;0.42;0.42;;;;;;;23.99;40.20;99056.84;1919628;74;27917;-53
2022/11/20 06:47:14;;;;;;;0.40;0.40;;;;;;;24.00;40.28;99049.72;1894009;74;28078;-48
2022/11/20 06:50:03;;;;;;;0.53;0.53;;;;;;;24.03;40.24;99049.75;1895220;74;28103;-50
2022/11/20 06:52:51;;;;;;;0.57;0.57;;;;;;;24.04;40.17;99050.02;1912341;74;28463;-51
2022/11/20 06:55:45;;;;;;;0.53;0.50;;;;;;;24.04;40.18;99047.28;1919014;74;28228;-53
2022/11/20 06:58:34;;;;;;;0.60;0.60;;;;;;;24.04;40.13;99058.25;1904828;74;27981;-51
2022/11/20 07:01:23;;;;;;;0.47;0.47;;;;;;;23.99;40.20;99059.02;1911547;74;28071;-49
2022/11/20 07:04:11;;;;;;;0.50;0.50;;;;;;;24.01;40.21;99056.84;1911104;74;28115;-48
2022/11/20 07:06:59;;;;;;;0.40;0.40;;;;;;;24.02;40.24;99068.66;1896115;74;28140;-53
2022/11/20 07:09:48;;;;;;;1.62;0.53;;;;;;;24.01;40.18;99069.19;1908835;74;28012;-53
2022/11/20 07:12:36;;;;;;;0.93;0.60;;;;;;;24.02;40.14;99071.40;1915440;74;28053;-54
2022/11/20 07:15:26;;;;;;;0.50;0.50;;;;;;;24.03;40.12;99067.05;1919242;74;27998;-53
